Terminal Aerodrome Forecast
Issued by NWS

Home | Current Version | Previous Version | Text Only | Print | Product List | Glossary On
Versions: 1 2 3 4 5 6 7 8 9 10 11 12 13 14 15 16
000
FTUS46 KMFR 180500
TAFRBG
TAF
KRBG 180540Z 1806/1906 00000KT P6SM SCT020 OVC035
     FM181200 VRB03KT P6SM OVC015
     FM181700 VRB03KT P6SM SCT020
     FM181900 VRB03KT P6SM SCT150=

USA.gov is the U.S. government's official web portal to all federal, state and local government web resources and services.